NCAR-RAP Real-Time Weather Data

Output produced by METARs form (06 May 2021  15:25 UTC)
found at http://weather.rap.ucar.edu/surface/
 
KLWV 061453Z AUTO 18012KT 10SM BKN110 16/07 A3014 RMK AO2 SLP207 T01560067 58004
KLWV 061353Z AUTO 18009KT 10SM OVC100 13/07 A3017 RMK AO2 SLP214 T01330067
KLWV 061253Z AUTO 17009KT 10SM SCT110 12/06 A3017 RMK AO2 SLP214 T01220061
KLWV 061153Z AUTO 14003KT 10SM FEW110 11/07 A3015 RMK AO2 SLP210 T01060067 10106 20078 55000
KLWV 061053Z AUTO 14003KT 10SM CLR 09/07 A3015 RMK AO2 SLP207 T00940067
KLWV 060953Z AUTO 11004KT 10SM CLR 09/08 A3015 RMK AO2 SLP210 T00890078
KLWV 060853Z AUTO 08003KT 10SM CLR 09/08 A3015 RMK AO2 SLP211 T00890083 53004
KLWV 060753Z AUTO 06005KT 10SM CLR 08/08 A3014 RMK AO2 SLP207 T00830078
KLWV 060653Z AUTO 17003KT 10SM CLR 08/07 A3015 RMK AO2 SLP211 T00780072
KLWV 060553Z AUTO 13003KT 10SM CLR 09/08 A3014 RMK AO2 SLP207 T00890078 10167 20089 401830089 58008
KLWV 060453Z AUTO 00000KT 10SM CLR 10/08 A3017 RMK AO2 SLP215 T01000078
KLWV 060353Z AUTO 00000KT 10SM CLR 11/08 A3017 RMK AO2 SLP216 T01060083
KLWV 060253Z AUTO 00000KT 10SM CLR 11/08 A3017 RMK AO2 SLP215 T01110083 53012
KLWV 060153Z AUTO 32004KT 10SM CLR 14/06 A3015 RMK AO2 SLP208 T01390061
KLWV 060053Z AUTO 34005KT 10SM CLR 15/07 A3014 RMK AO2 SLP205 T01500067